Data for 11/23/2008

Time Sea-Level Adjusted Pressure Absolute Pressure Temperature Relative Humidity Dew Point   
(mb) (inHg) (mb) (inHg) (C) (F) (%) (C) (F)
00:05 1020 30.12 849 25.07 0.3 32.6 91 -1 30.1
00:10 1020 30.12 849 25.07 0.3 32.5 92 -0.9 30.4
00:15 1020 30.12 849 25.07 0.1 32.2 93 -0.9 30.4
00:20 1020 30.12 849 25.07 0.1 32.1 93 -1 30.2
00:25 1020 30.12 849 25.07 0.1 32.2 92 -1 30.2
00:30 1020 30.12 849 25.07 0.1 32.1 92 -1.1 30
00:35 1020 30.12 849 25.07 0 32 92 -1.2 29.9
00:40 1020 30.12 849 25.07 0.2 32.4 90 -1.3 29.7
00:45 1020 30.12 849 25.07 0.5 32.8 89 -1.1 30
00:50 1020 30.12 849 25.07 0.5 32.8 90 -0.9 30.3
00:55 1020 30.12 849 25.07 0.4 32.7 91 -1 30.2
01:00 1020 30.12 849 25.07 0.3 32.6 91 -0.9 30.3
01:05 1020 30.12 849 25.07 0.2 32.4 91 -1.1 30
01:10 1020 30.12 849 25.07 0.2 32.4 90 -1.2 29.8
01:15 1020 30.12 850 25.1 0.2 32.4 88 -1.6 29.2
01:20 1020 30.12 850 25.1 0.3 32.5 86 -1.8 28.8
01:25 1020 30.12 850 25.1 0.3 32.6 84 -2.1 28.2
01:30 1020 30.12 850 25.1 0.3 32.6 85 -2 28.4
01:35 1021 30.15 850 25.1 0.2 32.3 86 -2 28.5
01:40 1021 30.15 850 25.1 0.1 32.1 87 -1.8 28.7
01:45 1021 30.15 850 25.1 -0 32 87 -1.9 28.5
01:50 1021 30.15 850 25.1 -0.1 31.8 87 -2.1 28.3
01:55 1021 30.15 850 25.1 -0.2 31.7 86 -2.2 28
02:00 1021 30.15 850 25.1 -0.2 31.6 85 -2.4 27.7
02:05 1021 30.15 850 25.1 -0.3 31.5 83 -2.9 26.8
02:10 1021 30.15 850 25.1 -0.3 31.4 83 -2.9 26.8
02:15 1021 30.15 850 25.1 -0.4 31.2 83 -3 26.6
02:20 1021 30.15 850 25.1 -0.5 31.1 82 -3.2 26.2
02:25 1021 30.15 850 25.1 -0.6 31 79 -3.8 25.1
02:30 1021 30.15 850 25.1 -0.6 30.9 76 -4.2 24.4
02:35 1021 30.15 850 25.1 -0.6 30.9 75 -4.5 23.9
02:40 1021 30.15 850 25.1 -0.7 30.8 77 -4.3 24.3
02:45 1021 30.15 851 25.13 -0.8 30.6 79 -4 24.7
02:50 1021 30.15 851 25.13 -0.9 30.4 79 -4.1 24.6
02:55 1021 30.15 851 25.13 -0.9 30.4 77 -4.4 24.1
03:00 1021 30.15 851 25.13 -0.8 30.6 75 -4.6 23.7
03:05 1022 30.18 851 25.13 -0.6 30.8 72 -5.1 22.9
03:10 1022 30.18 851 25.13 -0.6 31 72 -5.1 22.8
03:15 1022 30.18 851 25.13 -0.6 30.9 70 -5.4 22.2
03:20 1022 30.18 851 25.13 -0.6 30.9 69 -5.6 22
03:25 1022 30.18 851 25.13 -0.7 30.8 67 -6.1 21
03:30 1022 30.18 851 25.13 -0.7 30.8 67 -6 21.2
03:35 1022 30.18 851 25.13 -0.7 30.7 65 -6.4 20.4
03:40 1022 30.18 851 25.13 -0.7 30.7 65 -6.6 20.2
03:45 1022 30.18 851 25.13 -0.8 30.6 63 -6.9 19.5
03:50 1022 30.18 851 25.13 -0.9 30.4 65 -6.7 20
03:55 1022 30.18 851 25.13 -1.1 30 65 -6.9 19.6
04:00 1022 30.18 851 25.13 -1.3 29.7 64 -7.2 19.1
04:05 1022 30.18 851 25.13 -1.5 29.4 65 -7.2 19.1
04:10 1022 30.18 851 25.13 -1.6 29.1 66 -7.1 19.2
04:15 1022 30.18 851 25.13 -1.7 29 66 -7.3 18.9
04:20 1022 30.18 851 25.13 -1.7 29 65 -7.5 18.5
04:25 1022 30.18 851 25.13 -1.6 29.1 63 -7.7 18.2
04:30 1022 30.18 851 25.13 -1.7 29 63 -7.8 17.9
04:35 1022 30.18 852 25.16 -1.8 28.8 63 -8 17.7
04:40 1022 30.18 852 25.16 -1.8 28.8 63 -7.9 17.8
04:45 1022 30.18 852 25.16 -1.8 28.8 62 -8 17.6
04:50 1022 30.18 852 25.16 -1.7 28.9 63 -7.9 17.7
04:55 1022 30.18 852 25.16 -1.7 29 62 -8.1 17.5
05:00 1023 30.21 852 25.16 -1.6 29.2 61 -8.1 17.4
05:05 1023 30.21 852 25.16 -1.5 29.3 65 -7.3 18.8
05:10 1023 30.21 852 25.16 -2.4 27.7 66 -7.8 18
05:15 1023 30.21 852 25.16 -2.4 27.7 66 -7.9 17.8
05:20 1023 30.21 852 25.16 -2.3 27.9 66 -7.8 17.9
05:25 1023 30.21 852 25.16 -2.1 28.2 64 -8 17.6
05:30 1023 30.21 852 25.16 -2.1 28.2 64 -8.1 17.4
05:35 1023 30.21 852 25.16 -1.9 28.6 63 -8.1 17.4
05:40 1023 30.21 852 25.16 -1.6 29.1 61 -8.1 17.3
05:45 1023 30.21 852 25.16 -1.3 29.6 60 -8 17.5
05:50 1023 30.21 852 25.16 -1.2 29.8 61 -7.9 17.8
05:55 1023 30.21 852 25.16 -1.1 30 60 -7.9 17.8
06:00 1023 30.21 852 25.16 -1.1 30.1 60 -7.9 17.8
06:05 1023 30.21 852 25.16 -1.1 30 61 -7.7 18.2
06:10 1023 30.21 852 25.16 -1.8 28.7 65 -7.6 18.3
06:15 1023 30.21 852 25.16 -2 28.4 65 -7.7 18.2
06:20 1023 30.21 852 25.16 -2.1 28.3 65 -7.7 18.1
06:25 1023 30.21 853 25.19 -2 28.3 66 -7.5 18.5
06:30 1023 30.21 853 25.19 -2.1 28.2 67 -7.5 18.6
06:35 1023 30.21 853 25.19 -2.4 27.6 68 -7.5 18.6
06:40 1023 30.21 853 25.19 -2.6 27.3 68 -7.8 18
06:45 1023 30.21 853 25.19 -2.7 27.2 68 -7.8 17.9
06:50 1023 30.21 853 25.19 -2.8 26.9 66 -8.4 16.9
06:55 1023 30.21 853 25.19 -2.9 26.8 65 -8.5 16.7
07:00 1024 30.24 853 25.19 -2.9 26.7 66 -8.5 16.8
07:05 1024 30.24 853 25.19 -3.1 26.4 66 -8.5 16.7
07:10 1024 30.24 853 25.19 -3.1 26.4 69 -8 17.5
07:15 1024 30.24 853 25.19 -3.1 26.4 63 -9.2 15.5
07:20 1024 30.24 853 25.19 -2.9 26.9 62 -9.1 15.7
07:25 1024 30.24 853 25.19 -2.8 26.9 62 -9.2 15.5
07:30 1024 30.24 853 25.19 -2.9 26.8 62 -9.2 15.5
07:35 1024 30.24 853 25.19 -3 26.5 63 -9.2 15.5
07:40 1024 30.24 853 25.19 -3.3 26.1 63 -9.4 15.1
07:45 1024 30.24 853 25.19 -3.2 26.2 62 -9.6 14.8
07:50 1024 30.24 853 25.19 -3.2 26.3 61 -9.7 14.5
07:55 1024 30.24 853 25.19 -3.2 26.2 60 -9.9 14.2
08:00 1024 30.24 853 25.19 -3.3 26.1 60 -9.9 14.1
08:05 1024 30.24 853 25.19 -3.2 26.2 60 -9.9 14.2
08:10 1024 30.24 854 25.22 -3.1 26.5 60 -9.7 14.6
08:15 1024 30.24 854 25.22 -3 26.6 60 -9.6 14.7
08:20 1024 30.24 854 25.22 -2.8 27 60 -9.5 14.9
08:25 1025 30.27 854 25.22 -2.9 26.7 61 -9.5 14.9
08:30 1025 30.27 854 25.22 -3.2 26.3 61 -9.8 14.4
08:35 1025 30.27 854 25.22 -3.3 26.1 60 -10 14
08:40 1025 30.27 854 25.22 -3.1 26.4 59 -9.9 14.1
08:45 1025 30.27 854 25.22 -3.3 26.1 60 -10 13.9
08:50 1025 30.27 854 25.22 -3.3 26.1 58 -10.4 13.3
08:55 1025 30.27 854 25.22 -2.3 27.9 56 -10 14
09:00 1025 30.27 854 25.22 -2 28.4 54 -10 14
09:05 1025 30.27 854 25.22 -1.8 28.7 56 -9.4 15.1
09:10 1025 30.27 854 25.22 -2.8 27 60 -9.4 15.1
09:15 1025 30.27 854 25.22 -3 26.6 60 -9.8 14.4
09:20 1025 30.27 854 25.22 -2.6 27.3 59 -9.6 14.7
09:25 1025 30.27 854 25.22 -1.9 28.6 56 -9.5 14.9
09:30 1025 30.27 854 25.22 -1.1 30 52 -9.7 14.5
09:35 1025 30.27 854 25.22 -0.3 31.4 49 -9.7 14.5
09:40 1025 30.27 854 25.22 0.1 32.1 50 -9.1 15.6
09:45 1025 30.27 854 25.22 0.6 33 48 -9.4 15.1
09:50 1025 30.27 854 25.22 0.9 33.6 47 -9.1 15.7
09:55 1025 30.27 854 25.22 0.8 33.5 47 -9.3 15.3
10:00 1025 30.27 854 25.22 1.1 34 46 -9.1 15.5
10:05 1025 30.27 855 25.25 1.7 35 45 -9 15.8
10:10 1025 30.27 855 25.25 1.5 34.7 46 -8.9 16.1
10:15 1025 30.27 855 25.25 1.4 34.6 46 -9.1 15.7
10:20 1025 30.27 855 25.25 1.9 35.5 44 -9.1 15.7
10:25 1025 30.27 855 25.25 1.7 35.1 45 -8.8 16.1
10:30 1025 30.27 855 25.25 1.8 35.3 43 -9.6 14.8
10:35 1026 30.3 855 25.25 2 35.6 43 -9.5 14.9
10:40 1026 30.3 855 25.25 2.1 35.8 41 -9.7 14.6
10:45 1026 30.3 855 25.25 2.7 36.8 41 -9.4 15.1
10:50 1026 30.3 855 25.25 2.5 36.6 42 -9.1 15.7
10:55 1026 30.3 855 25.25 2.7 36.8 42 -9 15.8
11:00 1026 30.3 855 25.25 2.4 36.4 43 -8.8 16.2
11:05 1026 30.3 855 25.25 2.7 36.8 43 -8.6 16.4
11:10 1025 30.27 855 25.25 2.1 35.8 43 -9.2 15.5
11:15 1026 30.3 855 25.25 1.7 35.1 44 -9.2 15.5
11:20 1026 30.3 855 25.25 1.3 34.4 45 -9.4 15.1
11:25 1025 30.27 855 25.25 2 35.5 42 -9.6 14.7
11:30 1026 30.3 855 25.25 2.2 36 42 -9.3 15.2
11:35 1026 30.3 855 25.25 2.5 36.5 41 -9.5 15
11:40 1026 30.3 855 25.25 2.8 37 41 -9.2 15.5
11:45 1026 30.3 855 25.25 2.1 35.7 42 -9.5 14.9
11:50 1026 30.3 855 25.25 2 35.5 41 -9.8 14.3
11:55 1026 30.3 855 25.25 2.6 36.7 40 -9.8 14.4
12:00 1026 30.3 855 25.25 2.1 35.7 42 -9.6 14.7
12:05 1026 30.3 855 25.25 2.1 35.8 40 -10.3 13.5
12:10 1025 30.27 855 25.25 2.2 35.9 41 -9.7 14.6
12:15 1026 30.3 855 25.25 2.1 35.8 41 -9.8 14.3
12:20 1026 30.3 855 25.25 1.4 34.6 43 -9.8 14.3
12:25 1026 30.3 855 25.25 2.5 36.5 38 -10.4 13.3
12:30 1026 30.3 855 25.25 2.7 36.8 40 -9.5 14.9
12:35 1026 30.3 855 25.25 2.4 36.4 41 -9.5 14.9
12:40 1026 30.3 855 25.25 2.5 36.4 39 -10.1 13.9
12:45 1026 30.3 855 25.25 2 35.6 42 -9.6 14.7
12:50 1026 30.3 855 25.25 1.4 34.6 43 -9.9 14.2
12:55 1026 30.3 855 25.25 2.1 35.8 42 -9.6 14.7
13:00 1026 30.3 855 25.25 2.5 36.5 42 -9.2 15.5
13:05 1026 30.3 855 25.25 1.4 34.5 42 -10.1 13.8
13:10 1026 30.3 855 25.25 2.1 35.9 40 -10 13.9
13:15 1026 30.3 855 25.25 2 35.6 41 -9.8 14.4
13:20 1026 30.3 855 25.25 2.2 35.9 40 -10 14
13:25 1026 30.3 855 25.25 2.5 36.4 39 -10 14
13:30 1026 30.3 855 25.25 3.4 38.2 38 -9.6 14.7
13:35 1026 30.3 855 25.25 3.7 38.6 38 -9.2 15.4
13:40 1026 30.3 855 25.25 3.7 38.6 36 -9.9 14.2
13:45 1026 30.3 855 25.25 3.7 38.7 36 -9.9 14.1
13:50 1026 30.3 855 25.25 3 37.5 39 -9.7 14.5
13:55 1026 30.3 855 25.25 2.6 36.6 39 -10.1 13.9
14:00 1026 30.3 855 25.25 3.4 38.1 38 -9.7 14.5
14:05 1026 30.3 855 25.25 2.6 36.7 39 -10.1 13.8
14:10 1026 30.3 855 25.25 2.4 36.3 39 -10.1 13.9
14:15 1026 30.3 855 25.25 3.2 37.7 37 -10.2 13.6
14:20 1026 30.3 855 25.25 3.8 38.9 33 -10.9 12.4
14:25 1026 30.3 855 25.25 4.2 39.5 34 -10.3 13.5
14:30 1026 30.3 855 25.25 3.8 38.8 36 -10 14
14:35 1026 30.3 855 25.25 3.2 37.8 36 -10.5 13.2
14:40 1026 30.3 855 25.25 2.2 36 39 -10.5 13.2
14:45 1026 30.3 855 25.25 3 37.5 36 -10.6 13
14:50 1026 30.3 855 25.25 3.8 38.8 34 -10.6 12.8
14:55 1026 30.3 855 25.25 3.5 38.2 36 -10.3 13.5
15:00 1026 30.3 855 25.25 3 37.5 37 -10.4 13.3
15:05 1026 30.3 855 25.25 3.1 37.6 35 -11 12.2
15:10 1026 30.3 855 25.25 3.8 38.8 34 -10.8 12.5
15:15 1026 30.3 855 25.25 3.5 38.3 36 -10.1 13.7
15:20 1026 30.3 855 25.25 3.2 37.8 36 -10.5 13.2
15:25 1026 30.3 855 25.25 3.1 37.5 35 -11 12.2
15:30 1026 30.3 855 25.25 3.4 38.1 36 -10.4 13.2
15:35 1026 30.3 855 25.25 3.2 37.8 37 -10.2 13.7
15:40 1026 30.3 855 25.25 2.6 36.7 38 -10.3 13.5
15:45 1026 30.3 855 25.25 2.4 36.3 38 -10.6 13
15:50 1026 30.3 855 25.25 2.1 35.8 38 -10.9 12.4
15:55 1026 30.3 855 25.25 2.4 36.3 38 -10.4 13.3
16:00 1026 30.3 855 25.25 2.8 37.1 39 -9.7 14.5
16:05 1026 30.3 855 25.25 2.8 37 40 -9.6 14.8
16:10 1026 30.3 855 25.25 2.4 36.3 40 -9.9 14.2
16:15 1026 30.3 855 25.25 2.2 36 41 -9.6 14.7
16:20 1026 30.3 855 25.25 2 35.6 47 -8.2 17.3
16:25 1026 30.3 855 25.25 0.9 33.6 49 -8.6 16.5
16:30 1026 30.3 855 25.25 0.8 33.5 52 -7.9 17.8
16:35 1026 30.3 855 25.25 -0.1 31.8 55 -8 17.6
16:40 1026 30.3 855 25.25 0.1 32.3 55 -8 17.7
16:45 1026 30.3 855 25.25 -0.5 31 60 -7.3 18.8
16:50 1026 30.3 855 25.25 -1.2 29.8 62 -7.6 18.3
16:55 1026 30.3 855 25.25 -1.3 29.6 62 -7.6 18.3
17:00 1026 30.3 855 25.25 -1.5 29.3 64 -7.5 18.6
17:05 1026 30.3 855 25.25 -1.8 28.8 64 -7.6 18.2
17:10 1026 30.3 856 25.28 -1.7 29 64 -7.7 18.2
17:15 1026 30.3 856 25.28 -1.6 29.2 62 -7.9 17.9
17:20 1026 30.3 856 25.28 -1.9 28.7 63 -8.1 17.5
17:25 1026 30.3 856 25.28 -1.7 28.9 63 -7.9 17.8
17:30 1026 30.3 856 25.28 -1.8 28.8 64 -7.8 18
17:35 1026 30.3 856 25.28 -2.1 28.2 65 -7.9 17.9
17:40 1026 30.3 856 25.28 -2.3 27.8 66 -7.8 18
17:45 1026 30.3 856 25.28 -2.4 27.7 67 -7.7 18.2
17:50 1026 30.3 856 25.28 -2.5 27.5 69 -7.5 18.5
17:55 1026 30.3 856 25.28 -2.6 27.3 70 -7.4 18.8
18:00 1026 30.3 856 25.28 -2.7 27.2 71 -7.3 18.9
18:05 1026 30.3 855 25.25 -2.8 27 71 -7.3 18.8
18:10 1026 30.3 855 25.25 -2.8 26.9 71 -7.4 18.8
18:15 1026 30.3 855 25.25 -2.7 27.1 71 -7.2 19
18:20 1026 30.3 855 25.25 -2.6 27.4 71 -7.1 19.2
18:25 1026 30.3 855 25.25 -2.7 27.1 72 -7.2 19.1
18:30 1026 30.3 855 25.25 -2.8 27 72 -7.2 19.1
18:35 1026 30.3 855 25.25 -2.8 26.9 72 -7.3 18.9
18:40 1026 30.3 855 25.25 -2.9 26.8 72 -7.3 18.9
18:45 1026 30.3 855 25.25 -3.4 26 72 -7.7 18.1
18:50 1026 30.3 855 25.25 -3.5 25.6 70 -8.2 17.2
18:55 1026 30.3 855 25.25 -3.4 25.9 67 -8.6 16.5
19:00 1026 30.3 855 25.25 -3.4 25.8 67 -8.8 16.2
19:05 1026 30.3 855 25.25 -3.3 26.1 67 -8.7 16.4
19:10 1026 30.3 856 25.28 -3.1 26.4 68 -8.3 17
19:15 1026 30.3 856 25.28 -3.2 26.2 67 -8.5 16.7
19:20 1026 30.3 856 25.28 -3.1 26.4 67 -8.4 17
19:25 1027 30.33 856 25.28 -3.1 26.4 67 -8.4 16.8
19:30 1027 30.33 856 25.28 -3.2 26.2 68 -8.3 17.1
19:35 1027 30.33 856 25.28 -3 26.6 67 -8.3 17.1
19:40 1027 30.33 856 25.28 -2.8 26.9 66 -8.3 17.1
19:45 1027 30.33 856 25.28 -3.1 26.5 67 -8.3 17.1
19:50 1027 30.33 856 25.28 -3.3 26 68 -8.4 17
19:55 1026 30.3 856 25.28 -3.5 25.8 68 -8.5 16.6
20:00 1027 30.33 856 25.28 -3.4 25.8 68 -8.6 16.5
20:05 1027 30.33 856 25.28 -3.5 25.7 68 -8.5 16.7
20:10 1027 30.33 856 25.28 -3.9 25 70 -8.6 16.6
20:15 1027 30.33 856 25.28 -4.2 24.4 71 -8.8 16.2
20:20 1027 30.33 856 25.28 -4.1 24.6 70 -8.7 16.3
20:25 1027 30.33 856 25.28 -4 24.8 69 -8.8 16.1
20:30 1027 30.33 856 25.28 -3.8 25.1 69 -8.7 16.3
20:35 1027 30.33 856 25.28 -3.9 25 68 -8.9 16
20:40 1027 30.33 856 25.28 -3.8 25.1 68 -8.9 15.9
20:45 1027 30.33 856 25.28 -3.8 25.1 68 -8.9 15.9
20:50 1027 30.33 856 25.28 -4.1 24.7 69 -9 15.8
20:55 1027 30.33 856 25.28 -4.2 24.4 69 -9.1 15.7
21:00 1027 30.33 856 25.28 -4.4 24.1 69 -9.2 15.4
21:05 1027 30.33 856 25.28 -4.4 24 68 -9.5 14.8
21:10 1027 30.33 856 25.28 -4.2 24.5 66 -9.5 14.9
21:15 1027 30.33 856 25.28 -4.1 24.6 66 -9.6 14.6
21:20 1027 30.33 856 25.28 -4.1 24.7 65 -9.7 14.6
21:25 1027 30.33 856 25.28 -4.1 24.6 67 -9.4 15
21:30 1027 30.33 856 25.28 -4.6 23.8 68 -9.5 14.8
21:35 1027 30.33 856 25.28 -4.7 23.6 69 -9.6 14.7
21:40 1027 30.33 856 25.28 -4.6 23.7 68 -9.6 14.8
21:45 1027 30.33 856 25.28 -4.6 23.7 68 -9.6 14.6
21:50 1027 30.33 856 25.28 -4.5 23.8 67 -9.7 14.5
21:55 1027 30.33 856 25.28 -4.3 24.2 66 -9.8 14.4
22:00 1027 30.33 856 25.28 -4.2 24.4 65 -9.8 14.4
22:05 1027 30.33 856 25.28 -4.2 24.5 65 -9.7 14.5
22:10 1027 30.33 856 25.28 -4.5 24 65 -10.1 13.8
22:15 1027 30.33 856 25.28 -4.3 24.2 64 -10.2 13.7
22:20 1027 30.33 856 25.28 -4 24.8 63 -10.1 13.8
22:25 1027 30.33 856 25.28 -3.8 25.1 62 -10 14
22:30 1027 30.33 856 25.28 -3.7 25.4 61 -10.2 13.7
22:35 1027 30.33 856 25.28 -3.3 26.1 62 -9.6 14.7
22:40 1027 30.33 856 25.28 -3.8 25.1 64 -9.7 14.5
22:45 1027 30.33 856 25.28 -4.1 24.7 65 -9.8 14.4
22:50 1026 30.3 856 25.28 -4.3 24.3 66 -9.8 14.4
22:55 1026 30.3 856 25.28 -4.6 23.7 66 -10 14
23:00 1026 30.3 856 25.28 -4.7 23.5 67 -9.9 14.2
23:05 1026 30.3 856 25.28 -4.8 23.4 67 -10 14
23:10 1026 30.3 856 25.28 -4.8 23.4 67 -9.9 14.1
23:15 1026 30.3 856 25.28 -4.8 23.3 66 -10.2 13.7
23:20 1026 30.3 855 25.25 -4.6 23.8 66 -10.1 13.8
23:25 1026 30.3 855 25.25 -4.5 23.8 66 -10 13.9
23:30 1026 30.3 855 25.25 -4.5 23.9 65 -10.1 13.8
23:35 1026 30.3 855 25.25 -4.5 23.9 65 -10.2 13.7
23:40 1026 30.3 855 25.25 -4.5 23.8 64 -10.3 13.5
23:45 1026 30.3 855 25.25 -4.3 24.2 63 -10.3 13.4
23:50 1026 30.3 855 25.25 -4.4 24.1 65 -10.1 13.9
23:55 1026 30.3 855 25.25 -4.6 23.7 65 -10.2 13.6
24:00 1026 30.3 855 25.25 -4.8 23.3 67 -10.1 13.8